createdAt,value
2023-04-15T00:01:34.371Z,102330.00
2023-04-15T00:04:07.377Z,102331.00
2023-04-15T00:06:41.853Z,102319.00
2023-04-15T00:09:14.610Z,102327.00
2023-04-15T00:11:47.597Z,102322.00
2023-04-15T00:14:20.604Z,102323.00
2023-04-15T00:16:55.861Z,102308.00
2023-04-15T00:19:28.738Z,102317.00
2023-04-15T00:22:02.866Z,102321.00
2023-04-15T00:24:35.911Z,102308.00
2023-04-15T00:27:11.517Z,102315.00
2023-04-15T00:29:44.568Z,102306.00
2023-04-15T00:32:19.053Z,102306.00
2023-04-15T00:34:59.082Z,102298.00
2023-04-15T00:37:32.521Z,102305.00
2023-04-15T00:40:06.462Z,102289.00
2023-04-15T00:42:48.486Z,102272.00
2023-04-15T00:45:21.523Z,102290.00
2023-04-15T00:47:54.740Z,102274.00
2023-04-15T00:50:27.667Z,102286.00
2023-04-15T00:53:03.421Z,102287.00
2023-04-15T00:55:36.512Z,102272.00
2023-04-15T00:58:09.478Z,102275.00
2023-04-15T01:00:42.915Z,102268.00
2023-04-15T01:03:15.878Z,102258.00
2023-04-15T01:05:49.258Z,102255.00
2023-04-15T01:08:23.688Z,102252.00
2023-04-15T01:10:57.764Z,102261.00
2023-04-15T01:13:30.808Z,102253.00
2023-04-15T01:16:04.890Z,102256.00
2023-04-15T01:18:38.042Z,102238.00
2023-04-15T01:21:11.539Z,102229.00
2023-04-15T01:24:02.987Z,102220.00
2023-04-15T01:26:36.213Z,102225.00
2023-04-15T01:29:08.935Z,102221.00
2023-04-15T01:31:42.924Z,102213.00
2023-04-15T01:34:16.241Z,102209.00
2023-04-15T01:36:49.107Z,102208.00
2023-04-15T01:39:21.830Z,102204.00
2023-04-15T01:41:54.653Z,102205.00
2023-04-15T01:44:27.802Z,102211.00
2023-04-15T01:47:00.500Z,102202.00
2023-04-15T01:49:33.236Z,102191.00
2023-04-15T01:52:08.786Z,102194.00
2023-04-15T01:54:42.143Z,102184.00
2023-04-15T01:57:15.351Z,102174.00
2023-04-15T01:59:48.417Z,102179.00
2023-04-15T02:02:22.616Z,102178.00
2023-04-15T02:04:57.624Z,102178.00
2023-04-15T02:07:30.762Z,102180.00
2023-04-15T02:10:03.512Z,102175.00
2023-04-15T02:12:36.357Z,102176.00
2023-04-15T02:15:10.380Z,102171.00
2023-04-15T02:17:43.529Z,102181.00
2023-04-15T02:20:16.963Z,102178.00
2023-04-15T02:22:59.215Z,102166.00
2023-04-15T02:25:32.005Z,102150.00
2023-04-15T02:28:05.140Z,102146.00
2023-04-15T02:30:38.350Z,102152.00
2023-04-15T02:33:12.169Z,102150.00
2023-04-15T02:35:47.349Z,102139.00
2023-04-15T02:38:20.464Z,102146.00
2023-04-15T02:40:53.438Z,102149.00
2023-04-15T02:43:30.042Z,102145.00
2023-04-15T02:46:01.433Z,102142.00
2023-04-15T02:48:37.942Z,102134.00
2023-04-15T02:51:25.222Z,102156.00
2023-04-15T02:53:58.535Z,102147.00
2023-04-15T02:56:32.000Z,102148.00
2023-04-15T02:59:05.493Z,102137.00
2023-04-15T03:01:39.154Z,102148.00
2023-04-15T03:04:12.591Z,102149.00
2023-04-15T03:06:45.564Z,102163.00
2023-04-15T03:09:18.527Z,102167.00
2023-04-15T03:11:51.362Z,102165.00
2023-04-15T03:14:24.414Z,102156.00
2023-04-15T03:16:58.411Z,102160.00
2023-04-15T03:19:34.673Z,102164.00
2023-04-15T03:22:07.530Z,102170.00
2023-04-15T03:24:40.641Z,102172.00
2023-04-15T03:27:15.746Z,102164.00
2023-04-15T03:29:48.547Z,102175.00
2023-04-15T03:32:22.795Z,102180.00
2023-04-15T03:34:56.033Z,102178.00
2023-04-15T03:37:29.442Z,102188.00
2023-04-15T03:40:02.458Z,102180.00
2023-04-15T03:42:35.518Z,102184.00
2023-04-15T03:45:09.443Z,102179.00
2023-04-15T03:47:42.571Z,102187.00
2023-04-15T03:50:16.073Z,102170.00
2023-04-15T03:52:50.716Z,102160.00
2023-04-15T03:55:23.251Z,102150.00
2023-04-15T03:57:56.205Z,102161.00
2023-04-15T04:00:29.338Z,102165.00
2023-04-15T04:03:09.236Z,102153.00
2023-04-15T04:05:43.495Z,102166.00
2023-04-15T04:08:27.883Z,102156.00
2023-04-15T04:11:02.335Z,102148.00
2023-04-15T04:13:35.530Z,102142.00
2023-04-15T04:16:11.814Z,102128.00
2023-04-15T04:18:44.692Z,102122.00
2023-04-15T04:21:17.867Z,102130.00
2023-04-15T04:23:50.861Z,102146.00
2023-04-15T04:26:23.895Z,102148.00
2023-04-15T04:28:56.854Z,102146.00
2023-04-15T04:31:29.698Z,102160.00
2023-04-15T04:34:02.625Z,102163.00
2023-04-15T04:36:35.913Z,102169.00
2023-04-15T04:39:10.374Z,102155.00
2023-04-15T04:41:43.191Z,102158.00
2023-04-15T04:44:16.250Z,102169.00
2023-04-15T04:46:48.947Z,102172.00
2023-04-15T04:49:21.891Z,102176.00
2023-04-15T04:51:54.776Z,102172.00
2023-04-15T04:54:27.843Z,102183.00
2023-04-15T04:57:02.754Z,102173.00
2023-04-15T04:59:34.578Z,102183.00
2023-04-15T05:02:07.658Z,102171.00
2023-04-15T05:04:40.499Z,102167.00
2023-04-15T05:07:13.413Z,102181.00
2023-04-15T05:09:46.341Z,102174.00
2023-04-15T05:12:20.133Z,102182.00
2023-04-15T05:14:53.403Z,102170.00
2023-04-15T05:17:26.536Z,102173.00
2023-04-15T05:19:59.469Z,102166.00
2023-04-15T05:22:32.395Z,102183.00
2023-04-15T05:25:05.172Z,102192.00
2023-04-15T05:27:38.598Z,102189.00
2023-04-15T05:30:13.520Z,102190.00
2023-04-15T05:32:46.574Z,102191.00
2023-04-15T05:35:19.816Z,102188.00
2023-04-15T05:37:53.357Z,102190.00
2023-04-15T05:40:26.376Z,102191.00
2023-04-15T05:42:59.193Z,102172.00
2023-04-15T05:45:31.923Z,102184.00
2023-04-15T05:48:04.804Z,102182.00
2023-04-15T05:50:38.220Z,102190.00
2023-04-15T05:53:11.290Z,102192.00
2023-04-15T05:55:44.195Z,102176.00
2023-04-15T05:58:19.845Z,102185.00
2023-04-15T06:00:55.900Z,102203.00
2023-04-15T06:03:29.366Z,102201.00
2023-04-15T06:06:03.093Z,102207.00
2023-04-15T06:08:36.094Z,102221.00
2023-04-15T06:11:09.187Z,102225.00
2023-04-15T06:13:42.316Z,102213.00
2023-04-15T06:16:16.301Z,102223.00
2023-04-15T06:18:49.215Z,102217.00
2023-04-15T06:21:22.427Z,102199.00
2023-04-15T06:23:55.238Z,102205.00
2023-04-15T06:26:28.594Z,102187.00
2023-04-15T06:29:02.479Z,102190.00
2023-04-15T06:31:37.411Z,102192.00
2023-04-15T06:34:10.665Z,102198.00
2023-04-15T06:36:44.232Z,102206.00
2023-04-15T06:42:07.760Z,102225.00
2023-04-15T06:44:40.674Z,102211.00
2023-04-15T06:47:14.989Z,102211.00
2023-04-15T06:49:47.807Z,102205.00
2023-04-15T06:52:20.702Z,102184.00
2023-04-15T06:54:53.572Z,102192.00
2023-04-15T06:57:31.567Z,102190.00
2023-04-15T07:00:04.853Z,102212.00
2023-04-15T07:02:38.036Z,102195.00
2023-04-15T07:05:11.092Z,102198.00
2023-04-15T07:07:44.075Z,102202.00
2023-04-15T07:10:17.728Z,102200.00
2023-04-15T07:12:52.536Z,102198.00
2023-04-15T07:15:25.544Z,102206.00
2023-04-15T07:17:58.685Z,102229.00
2023-04-15T07:20:32.393Z,102210.00
2023-04-15T07:23:05.485Z,102223.00
2023-04-15T07:25:38.661Z,102211.00
2023-04-15T07:28:11.643Z,102209.00
2023-04-15T07:30:44.595Z,102208.00
2023-04-15T07:33:17.813Z,102217.00
2023-04-15T07:35:51.847Z,102212.00
2023-04-15T07:38:25.361Z,102217.00
2023-04-15T07:40:58.624Z,102223.00
2023-04-15T07:43:31.829Z,102226.00
2023-04-15T07:46:09.473Z,102245.00
2023-04-15T07:48:45.390Z,102241.00
2023-04-15T07:51:30.208Z,102236.00
2023-04-15T07:54:03.047Z,102227.00
2023-04-15T07:56:36.546Z,102221.00
2023-04-15T07:59:15.721Z,102215.00
2023-04-15T08:02:00.175Z,102225.00
2023-04-15T08:04:38.480Z,102211.00
2023-04-15T08:07:30.994Z,102206.00
2023-04-15T08:10:05.445Z,102225.00
2023-04-15T08:12:49.238Z,102231.00
2023-04-15T08:15:30.831Z,102225.00
2023-04-15T08:18:09.325Z,102235.00
2023-04-15T08:20:44.476Z,102229.00
2023-04-15T08:23:20.447Z,102242.00
2023-04-15T08:25:57.134Z,102247.00
2023-04-15T08:31:32.991Z,102203.00
2023-04-15T08:34:06.579Z,102257.00
2023-04-15T08:36:44.547Z,102253.00
2023-04-15T08:39:21.524Z,102247.00
2023-04-15T08:42:04.233Z,102238.00
2023-04-15T08:44:46.748Z,102256.00
2023-04-15T08:47:20.884Z,102241.00
2023-04-15T08:50:01.957Z,102254.00
2023-04-15T08:52:40.712Z,102252.00
2023-04-15T08:55:22.760Z,102257.00
2023-04-15T08:58:11.111Z,102265.00
2023-04-15T09:00:46.334Z,102277.00
2023-04-15T09:03:24.179Z,102260.00
2023-04-15T09:06:02.311Z,102246.00
2023-04-15T09:08:41.502Z,102262.00
2023-04-15T09:11:20.083Z,102263.00
2023-04-15T09:14:01.569Z,102262.00
2023-04-15T09:16:34.877Z,102262.00
2023-04-15T09:19:11.198Z,102242.00
2023-04-15T09:21:44.205Z,102250.00
2023-04-15T09:24:17.463Z,102247.00
2023-04-15T09:26:50.523Z,102271.00
2023-04-15T09:29:23.966Z,102266.00
2023-04-15T09:31:56.819Z,102257.00
2023-04-15T09:34:32.183Z,102252.00
2023-04-15T09:37:05.372Z,102274.00
2023-04-15T09:39:54.868Z,102266.00
2023-04-15T09:42:28.661Z,102260.00
2023-04-15T09:45:03.891Z,102254.00
2023-04-15T09:47:39.420Z,102264.00
2023-04-15T09:50:12.889Z,102251.00
2023-04-15T09:52:49.206Z,102283.00
2023-04-15T09:55:23.221Z,102281.00
2023-04-15T09:57:56.353Z,102275.00
2023-04-15T10:00:29.735Z,102269.00
2023-04-15T10:03:02.867Z,102264.00
2023-04-15T10:05:36.500Z,102276.00
2023-04-15T10:08:10.288Z,102295.00
2023-04-15T10:10:47.993Z,102272.00
2023-04-15T10:13:22.623Z,102270.00
2023-04-15T10:16:06.895Z,102248.00
2023-04-15T10:18:42.119Z,102273.00
2023-04-15T10:21:16.827Z,102271.00
2023-04-15T10:24:01.562Z,102273.00
2023-04-15T10:26:37.866Z,102284.00
2023-04-15T10:29:11.414Z,102271.00
2023-04-15T10:31:45.635Z,102275.00
2023-04-15T10:34:18.950Z,102266.00
2023-04-15T10:36:52.006Z,102271.00
2023-04-15T10:39:42.071Z,102277.00
2023-04-15T10:42:22.794Z,102269.00
2023-04-15T10:44:58.501Z,102271.00
2023-04-15T10:47:31.636Z,102267.00
2023-04-15T10:50:08.447Z,102276.00
2023-04-15T10:52:43.819Z,102291.00
2023-04-15T10:55:21.160Z,102288.00
2023-04-15T10:57:55.844Z,102265.00
2023-04-15T11:00:39.276Z,102265.00
2023-04-15T11:03:14.029Z,102286.00
2023-04-15T11:05:55.573Z,102275.00
2023-04-15T11:08:33.463Z,102264.00
2023-04-15T11:11:07.460Z,102263.00
2023-04-15T11:13:41.566Z,102261.00
2023-04-15T11:16:14.817Z,102255.00
2023-04-15T11:18:57.709Z,102254.00
2023-04-15T11:21:31.130Z,102237.00
2023-04-15T11:24:04.227Z,102244.00
2023-04-15T11:26:37.661Z,102273.00
2023-04-15T11:29:10.374Z,102264.00
2023-04-15T11:31:44.271Z,102266.00
2023-04-15T11:34:17.819Z,102273.00
2023-04-15T11:36:51.962Z,102290.00
2023-04-15T11:39:26.210Z,102292.00
2023-04-15T11:41:59.404Z,102280.00
2023-04-15T11:44:32.293Z,102272.00
2023-04-15T11:47:10.368Z,102273.00
2023-04-15T11:49:46.275Z,102259.00
2023-04-15T11:52:19.420Z,102254.00
2023-04-15T11:54:52.359Z,102237.00
2023-04-15T11:57:25.292Z,102243.00
2023-04-15T11:59:58.943Z,102242.00
2023-04-15T12:02:49.421Z,102255.00
2023-04-15T12:05:22.553Z,102259.00
2023-04-15T12:08:04.804Z,102244.00
2023-04-15T12:10:37.561Z,102247.00
2023-04-15T12:13:14.185Z,102247.00
2023-04-15T12:15:51.762Z,102248.00
2023-04-15T12:18:24.670Z,102246.00
2023-04-15T12:20:57.576Z,102244.00
2023-04-15T12:23:30.554Z,102247.00
2023-04-15T12:26:17.044Z,102236.00
2023-04-15T12:28:53.486Z,102238.00
2023-04-15T12:31:26.379Z,102235.00
2023-04-15T12:34:03.223Z,102238.00
2023-04-15T12:36:37.372Z,102240.00
2023-04-15T12:39:17.548Z,102232.00
2023-04-15T12:42:08.470Z,102244.00
2023-04-15T12:44:43.152Z,102248.00
2023-04-15T12:47:16.705Z,102247.00
2023-04-15T12:49:51.042Z,102241.00
2023-04-15T12:52:26.404Z,102243.00
2023-04-15T12:55:03.048Z,102250.00
2023-04-15T12:57:35.969Z,102252.00
2023-04-15T13:00:10.232Z,102255.00
2023-04-15T13:02:43.245Z,102252.00
2023-04-15T13:05:23.596Z,102253.00
2023-04-15T13:08:03.872Z,102251.00
2023-04-15T13:10:38.079Z,102251.00
2023-04-15T13:13:10.967Z,102255.00
2023-04-15T13:15:45.054Z,102247.00
2023-04-15T13:18:17.962Z,102237.00
2023-04-15T13:20:52.122Z,102249.00
2023-04-15T13:23:25.030Z,102242.00
2023-04-15T13:25:57.780Z,102246.00
2023-04-15T13:28:30.851Z,102258.00
2023-04-15T13:31:03.717Z,102250.00
2023-04-15T13:33:36.677Z,102241.00
2023-04-15T13:36:09.739Z,102249.00
2023-04-15T13:38:44.105Z,102239.00
2023-04-15T13:41:16.940Z,102242.00
2023-04-15T13:43:50.195Z,102234.00
2023-04-15T13:46:23.811Z,102253.00
2023-04-15T13:48:59.913Z,102250.00
2023-04-15T13:51:32.900Z,102259.00
2023-04-15T13:54:06.076Z,102256.00
2023-04-15T13:56:40.371Z,102247.00
2023-04-15T13:59:13.199Z,102259.00
2023-04-15T14:01:46.840Z,102233.00
2023-04-15T14:04:24.036Z,102222.00
2023-04-15T14:06:57.003Z,102241.00
2023-04-15T14:09:30.617Z,102232.00
2023-04-15T14:12:04.057Z,102233.00
2023-04-15T14:14:37.049Z,102217.00
2023-04-15T14:17:09.856Z,102222.00
2023-04-15T14:19:42.755Z,102230.00
2023-04-15T14:22:15.606Z,102205.00
2023-04-15T14:24:50.448Z,102203.00
2023-04-15T14:27:23.270Z,102207.00
2023-04-15T14:29:56.116Z,102215.00
2023-04-15T14:32:31.310Z,102202.00
2023-04-15T14:35:04.571Z,102216.00
2023-04-15T14:37:37.426Z,102209.00
2023-04-15T14:40:13.367Z,102194.00
2023-04-15T14:42:45.328Z,102183.00
2023-04-15T14:45:19.523Z,102191.00
2023-04-15T14:47:52.366Z,102189.00
2023-04-15T14:50:25.155Z,102172.00
2023-04-15T14:53:09.489Z,102172.00
2023-04-15T14:55:43.987Z,102173.00
2023-04-15T14:58:17.112Z,102169.00
2023-04-15T15:00:50.027Z,102164.00
2023-04-15T15:03:27.291Z,102171.00
2023-04-15T15:06:03.749Z,102175.00
2023-04-15T15:08:37.197Z,102185.00
2023-04-15T15:11:10.374Z,102187.00
2023-04-15T15:13:43.371Z,102170.00
2023-04-15T15:16:16.513Z,102164.00
2023-04-15T15:18:49.748Z,102174.00
2023-04-15T15:21:22.612Z,102168.00
2023-04-15T15:23:55.530Z,102160.00
2023-04-15T15:26:29.947Z,102157.00
2023-04-15T15:29:08.902Z,102149.00
2023-04-15T15:31:44.771Z,102132.00
2023-04-15T15:34:18.029Z,102141.00
2023-04-15T15:36:51.787Z,102132.00
2023-04-15T15:39:25.799Z,102139.00
2023-04-15T15:41:58.578Z,102143.00
2023-04-15T15:44:32.972Z,102131.00
2023-04-15T15:47:05.985Z,102143.00
2023-04-15T15:49:38.963Z,102147.00
2023-04-15T15:52:11.860Z,102134.00
2023-04-15T15:54:47.805Z,102138.00
2023-04-15T15:57:20.627Z,102122.00
2023-04-15T16:00:04.757Z,102118.00
2023-04-15T16:02:52.298Z,102120.00
2023-04-15T16:05:02.228Z,102111.00
2023-04-15T16:07:35.110Z,102107.00
2023-04-15T16:10:08.419Z,102128.00
2023-04-15T16:12:42.595Z,102112.00
2023-04-15T16:15:15.983Z,102131.00
2023-04-15T16:17:48.713Z,102143.00
2023-04-15T16:20:21.613Z,102144.00
2023-04-15T16:22:55.091Z,102140.00
2023-04-15T16:25:27.985Z,102162.00
2023-04-15T16:28:08.879Z,102135.00
2023-04-15T16:30:37.670Z,102141.00
2023-04-15T16:33:09.971Z,102151.00
2023-04-15T16:35:42.747Z,102146.00
2023-04-15T16:38:15.826Z,102144.00
2023-04-15T16:40:48.769Z,102148.00
2023-04-15T16:43:21.739Z,102144.00
2023-04-15T16:45:54.561Z,102158.00
2023-04-15T16:48:28.047Z,102141.00
2023-04-15T16:51:02.030Z,102136.00
2023-04-15T16:53:34.878Z,102129.00
2023-04-15T16:56:10.481Z,102122.00
2023-04-15T16:58:44.745Z,102135.00
2023-04-15T17:01:17.736Z,102117.00
2023-04-15T17:03:51.466Z,102121.00
2023-04-15T17:06:24.691Z,102109.00
2023-04-15T17:09:00.766Z,102125.00
2023-04-15T17:11:33.893Z,102118.00
2023-04-15T17:14:07.702Z,102126.00
2023-04-15T17:16:40.474Z,102122.00
2023-04-15T17:19:19.868Z,102105.00
2023-04-15T17:21:55.059Z,102115.00
2023-04-15T17:24:28.450Z,102131.00
2023-04-15T17:27:02.568Z,102120.00
2023-04-15T17:29:35.265Z,102118.00
2023-04-15T17:32:12.579Z,102129.00
2023-04-15T17:34:50.660Z,102113.00
2023-04-15T17:37:19.774Z,102119.00
2023-04-15T17:39:52.829Z,102138.00
2023-04-15T17:42:28.917Z,102118.00
2023-04-15T17:45:01.860Z,102138.00
2023-04-15T17:47:35.291Z,102132.00
2023-04-15T17:50:08.581Z,102126.00
2023-04-15T17:52:41.536Z,102125.00
2023-04-15T17:55:14.484Z,102132.00
2023-04-15T17:57:48.387Z,102134.00
2023-04-15T18:00:21.804Z,102137.00
2023-04-15T18:02:55.100Z,102125.00
2023-04-15T18:05:31.244Z,102132.00
2023-04-15T18:08:04.276Z,102128.00
2023-04-15T18:10:38.086Z,102135.00
2023-04-15T18:13:10.959Z,102132.00
2023-04-15T18:15:45.576Z,102126.00
2023-04-15T18:18:17.583Z,102120.00
2023-04-15T18:20:50.492Z,102139.00
2023-04-15T18:23:24.053Z,102134.00
2023-04-15T18:25:56.849Z,102134.00
2023-04-15T18:28:29.900Z,102121.00
2023-04-15T18:31:03.385Z,102118.00
2023-04-15T18:33:37.599Z,102118.00
2023-04-15T18:36:10.556Z,102131.00
2023-04-15T18:38:43.489Z,102135.00
2023-04-15T18:41:16.092Z,102132.00
2023-04-15T18:43:48.998Z,102126.00
2023-04-15T18:46:21.867Z,102131.00
2023-04-15T18:48:55.500Z,102113.00
2023-04-15T18:51:29.241Z,102137.00
2023-04-15T18:54:02.104Z,102109.00
2023-04-15T18:56:35.240Z,102108.00
2023-04-15T18:59:27.820Z,102129.00
2023-04-15T19:01:41.932Z,102128.00
2023-04-15T19:04:15.216Z,102130.00
2023-04-15T19:06:48.069Z,102133.00
2023-04-15T19:09:25.144Z,102125.00
2023-04-15T19:11:58.630Z,102132.00
2023-04-15T19:14:31.431Z,102145.00
2023-04-15T19:17:04.276Z,102138.00
2023-04-15T19:19:40.159Z,102158.00
2023-04-15T19:22:13.113Z,102148.00
2023-04-15T19:24:46.201Z,102149.00
2023-04-15T19:27:19.044Z,102166.00
2023-04-15T19:29:51.722Z,102162.00
2023-04-15T19:32:24.870Z,102187.00
2023-04-15T19:34:57.581Z,102172.00
2023-04-15T19:37:30.376Z,102198.00
2023-04-15T19:40:03.194Z,102194.00
2023-04-15T19:42:35.930Z,102205.00
2023-04-15T19:45:09.267Z,102198.00
2023-04-15T19:47:42.175Z,102191.00
2023-04-15T19:50:17.610Z,102185.00
2023-04-15T19:52:50.758Z,102199.00
2023-04-15T19:55:24.089Z,102203.00
2023-04-15T19:58:00.944Z,102200.00
2023-04-15T20:00:33.960Z,102206.00
2023-04-15T20:03:06.984Z,102207.00
2023-04-15T20:05:39.700Z,102213.00
2023-04-15T20:08:12.326Z,102205.00
2023-04-15T20:10:45.356Z,102208.00
2023-04-15T20:13:18.291Z,102205.00
2023-04-15T20:15:51.347Z,102207.00
2023-04-15T20:18:24.333Z,102221.00
2023-04-15T20:20:57.127Z,102216.00
2023-04-15T20:23:29.871Z,102222.00
2023-04-15T20:26:02.690Z,102211.00
2023-04-15T20:28:35.824Z,102214.00
2023-04-15T20:31:11.550Z,102210.00
2023-04-15T20:33:44.452Z,102217.00
2023-04-15T20:36:17.523Z,102209.00
2023-04-15T20:38:50.295Z,102213.00
2023-04-15T20:41:24.061Z,102218.00
2023-04-15T20:43:56.884Z,102218.00
2023-04-15T20:46:30.120Z,102209.00
2023-04-15T20:49:03.989Z,102205.00
2023-04-15T20:51:38.687Z,102202.00
2023-04-15T20:54:12.002Z,102217.00
2023-04-15T20:56:44.997Z,102212.00
2023-04-15T20:59:17.835Z,102208.00
2023-04-15T21:01:51.172Z,102218.00
2023-04-15T21:04:24.062Z,102217.00
2023-04-15T21:06:57.140Z,102221.00
2023-04-15T21:09:30.206Z,102226.00
2023-04-15T21:12:03.483Z,102250.00
2023-04-15T21:14:37.704Z,102230.00
2023-04-15T21:17:13.982Z,102236.00
2023-04-15T21:19:46.918Z,102234.00
2023-04-15T21:22:19.999Z,102235.00
2023-04-15T21:24:53.513Z,102239.00
2023-04-15T21:27:27.656Z,102243.00
2023-04-15T21:30:00.599Z,102247.00
2023-04-15T21:32:33.517Z,102225.00
2023-04-15T21:35:06.454Z,102226.00
2023-04-15T21:37:39.827Z,102225.00
2023-04-15T21:40:13.579Z,102228.00
2023-04-15T21:42:46.257Z,102229.00
2023-04-15T21:45:19.269Z,102231.00
2023-04-15T21:48:04.840Z,102226.00
2023-04-15T21:50:26.205Z,102228.00
2023-04-15T21:52:59.323Z,102221.00
2023-04-15T21:55:32.853Z,102230.00
2023-04-15T21:58:05.791Z,102235.00
2023-04-15T22:00:40.400Z,102230.00
2023-04-15T22:03:13.133Z,102232.00
2023-04-15T22:05:50.053Z,102225.00
2023-04-15T22:08:23.205Z,102224.00
2023-04-15T22:10:56.124Z,102226.00
2023-04-15T22:13:28.982Z,102228.00
2023-04-15T22:16:02.042Z,102233.00
2023-04-15T22:18:36.277Z,102232.00
2023-04-15T22:21:09.826Z,102221.00
2023-04-15T22:23:42.622Z,102204.00
2023-04-15T22:26:15.402Z,102222.00
2023-04-15T22:28:48.354Z,102218.00
2023-04-15T22:31:21.447Z,102218.00
2023-04-15T22:33:54.228Z,102201.00
2023-04-15T22:36:30.963Z,102208.00
2023-04-15T22:39:04.114Z,102209.00
2023-04-15T22:41:41.450Z,102207.00
2023-04-15T22:44:14.355Z,102212.00
2023-04-15T22:46:47.192Z,102203.00
2023-04-15T22:49:20.034Z,102198.00
2023-04-15T22:51:52.950Z,102209.00
2023-04-15T22:54:26.418Z,102207.00
2023-04-15T22:56:59.740Z,102199.00
2023-04-15T22:59:32.587Z,102191.00
2023-04-15T23:02:05.284Z,102186.00
2023-04-15T23:04:38.180Z,102189.00
2023-04-15T23:07:11.271Z,102188.00
2023-04-15T23:09:43.938Z,102176.00
2023-04-15T23:12:17.512Z,102175.00
2023-04-15T23:14:50.576Z,102182.00
2023-04-15T23:17:23.618Z,102169.00
2023-04-15T23:19:56.377Z,102178.00
2023-04-15T23:22:29.162Z,102158.00
2023-04-15T23:25:01.989Z,102167.00
2023-04-15T23:27:34.692Z,102164.00
2023-04-15T23:30:07.645Z,102161.00
2023-04-15T23:32:40.306Z,102153.00
2023-04-15T23:35:13.691Z,102152.00
2023-04-15T23:37:46.300Z,102152.00
2023-04-15T23:40:19.277Z,102141.00
2023-04-15T23:42:51.992Z,102142.00
2023-04-15T23:45:25.029Z,102148.00
2023-04-15T23:47:57.900Z,102154.00
2023-04-15T23:50:31.383Z,102150.00
2023-04-15T23:53:04.188Z,102152.00
2023-04-15T23:55:37.140Z,102136.00
2023-04-15T23:58:09.957Z,102143.00
